createdAt,value
2017-07-21T00:00:29.474Z,1005.9
2017-07-21T00:01:39.758Z,1005.94
2017-07-21T00:02:50.037Z,1005.96
2017-07-21T00:04:00.321Z,1005.92
2017-07-21T00:05:10.856Z,1005.94
2017-07-21T00:06:20.830Z,1005.96
2017-07-21T00:07:30.815Z,1005.94
2017-07-21T00:08:40.785Z,1005.93
2017-07-21T00:09:51.068Z,1006
2017-07-21T00:11:01.281Z,1006
2017-07-21T00:12:11.247Z,1006.02
2017-07-21T00:13:21.521Z,1006.01
2017-07-21T00:14:31.808Z,1006.05
2017-07-21T00:15:41.467Z,1006.04
2017-07-21T00:16:51.388Z,1006.04
2017-07-21T00:18:01.685Z,1006
2017-07-21T00:19:11.995Z,1005.98
2017-07-21T00:20:21.986Z,1005.96
2017-07-21T00:21:32.289Z,1005.92
2017-07-21T00:22:42.523Z,1005.99
2017-07-21T00:23:52.819Z,1006.03
2017-07-21T00:25:03.103Z,1006.05
2017-07-21T00:26:13.368Z,1006.11
2017-07-21T00:27:23.647Z,1006.02
2017-07-21T00:28:33.878Z,1006.03
2017-07-21T00:29:44.171Z,1006.02
2017-07-21T00:30:54.444Z,1006.04
2017-07-21T00:32:04.725Z,1006.05
2017-07-21T00:33:14.689Z,1006.05
2017-07-21T00:34:24.917Z,1006.02
2017-07-21T00:35:35.195Z,1006.05
2017-07-21T00:36:45.470Z,1006.06
2017-07-21T00:37:55.130Z,1006.06
2017-07-21T00:39:05.404Z,1006.04
2017-07-21T00:40:15.635Z,1006.03
2017-07-21T00:41:25.607Z,1006.01
2017-07-21T00:42:35.887Z,1006.01
2017-07-21T00:43:46.169Z,1006.02
2017-07-21T00:44:56.450Z,1006.03
2017-07-21T00:46:06.675Z,1006.07
2017-07-21T00:47:16.646Z,1006.15
2017-07-21T00:48:26.624Z,1006.12
2017-07-21T00:49:36.899Z,1006.1
2017-07-21T00:50:46.862Z,1006.18
2017-07-21T00:51:57.075Z,1006.13
2017-07-21T00:53:07.340Z,1006.15
2017-07-21T00:54:17.318Z,1006.16
2017-07-21T00:55:27.599Z,1006.15
2017-07-21T00:56:37.882Z,1006.19
2017-07-21T00:57:48.116Z,1006.15
2017-07-21T00:58:58.497Z,1006.21
2017-07-21T01:00:08.790Z,1006.23
2017-07-21T01:01:19.092Z,1006.17
2017-07-21T01:02:29.373Z,1006.23
2017-07-21T01:03:39.905Z,1006.27
2017-07-21T01:04:49.889Z,1006.26
2017-07-21T01:06:00.205Z,1006.24
2017-07-21T01:07:10.481Z,1006.17
2017-07-21T01:08:20.766Z,1006.25
2017-07-21T01:09:31.304Z,1006.27
2017-07-21T01:10:41.599Z,1006.28
2017-07-21T01:11:51.268Z,1006.27
2017-07-21T01:13:01.542Z,1006.27
2017-07-21T01:14:11.829Z,1006.23
2017-07-21T01:15:22.368Z,1006.26
2017-07-21T01:16:32.641Z,1006.26
2017-07-21T01:17:42.918Z,1006.24
2017-07-21T01:18:53.192Z,1006.26
2017-07-21T01:20:03.486Z,1006.26
2017-07-21T01:21:13.997Z,1006.29
2017-07-21T01:22:23.653Z,1006.25
2017-07-21T01:23:33.618Z,1006.31
2017-07-21T01:24:43.889Z,1006.32
2017-07-21T01:25:53.858Z,1006.39
2017-07-21T01:27:04.393Z,1006.34
2017-07-21T01:28:14.703Z,1006.35
2017-07-21T01:29:24.970Z,1006.41
2017-07-21T01:30:35.243Z,1006.38
2017-07-21T01:31:45.227Z,1006.37
2017-07-21T01:32:55.760Z,1006.42
2017-07-21T01:34:06.046Z,1006.36
2017-07-21T01:35:16.016Z,1006.4
2017-07-21T01:36:26.294Z,1006.39
2017-07-21T01:37:36.551Z,1006.44
2017-07-21T01:38:47.079Z,1006.44
2017-07-21T01:39:57.038Z,1006.48
2017-07-21T01:41:07.319Z,1006.47
2017-07-21T01:42:17.292Z,1006.49
2017-07-21T01:43:27.265Z,1006.49
2017-07-21T01:44:37.477Z,1006.5
2017-07-21T01:45:47.436Z,1006.53
2017-07-21T01:46:57.710Z,1006.56
2017-07-21T01:48:07.993Z,1006.55
2017-07-21T01:49:17.955Z,1006.53
2017-07-21T01:50:28.482Z,1006.5
2017-07-21T01:51:38.480Z,1006.59
2017-07-21T01:52:48.750Z,1006.57
2017-07-21T01:53:58.711Z,1006.49
2017-07-21T01:55:08.679Z,1006.51
2017-07-21T01:56:18.600Z,1006.49
2017-07-21T01:57:28.899Z,1006.5
2017-07-21T01:58:39.174Z,1006.48
2017-07-21T01:59:48.826Z,1006.54
2017-07-21T02:00:58.481Z,1006.51
2017-07-21T02:02:08.699Z,1006.53
2017-07-21T02:03:18.974Z,1006.56
2017-07-21T02:04:28.948Z,1006.57
2017-07-21T02:05:39.229Z,1006.57
2017-07-21T02:06:49.495Z,1006.55
2017-07-21T02:07:59.704Z,1006.58
2017-07-21T02:09:09.675Z,1006.6
2017-07-21T02:10:19.956Z,1006.61
2017-07-21T02:11:30.239Z,1006.58
2017-07-21T02:12:40.221Z,1006.55
2017-07-21T02:13:50.750Z,1006.55
2017-07-21T02:15:00.706Z,1006.63
2017-07-21T02:16:10.989Z,1006.55
2017-07-21T02:17:20.969Z,1006.51
2017-07-21T02:18:31.258Z,1006.59
2017-07-21T02:19:41.772Z,1006.62
2017-07-21T02:20:51.732Z,1006.66
2017-07-21T02:22:01.702Z,1006.66
2017-07-21T02:23:11.685Z,1006.68
2017-07-21T02:24:21.655Z,1006.7
2017-07-21T02:25:31.863Z,1006.69
2017-07-21T02:26:41.836Z,1006.65
2017-07-21T02:27:52.105Z,1006.7
2017-07-21T02:29:01.771Z,1006.7
2017-07-21T02:30:11.736Z,1006.65
2017-07-21T02:31:22.320Z,1006.69
2017-07-21T02:32:31.982Z,1006.66
2017-07-21T02:33:41.632Z,1006.67
2017-07-21T02:34:51.294Z,1006.74
2017-07-21T02:36:01.257Z,1006.71
2017-07-21T02:37:11.484Z,1006.73
2017-07-21T02:38:21.143Z,1006.72
2017-07-21T02:39:30.815Z,1006.7
2017-07-21T02:40:41.113Z,1006.75
2017-07-21T02:41:51.417Z,1006.8
2017-07-21T02:43:01.630Z,1006.83
2017-07-21T02:44:11.905Z,1006.79
2017-07-21T02:45:22.171Z,1006.83
2017-07-21T02:46:32.442Z,1006.83
2017-07-21T02:47:42.725Z,1006.83
2017-07-21T02:48:52.944Z,1006.86
2017-07-21T02:50:03.206Z,1006.88
2017-07-21T02:51:13.486Z,1006.87
2017-07-21T02:52:23.469Z,1006.89
2017-07-21T02:53:33.123Z,1006.85
2017-07-21T02:54:43.048Z,1006.83
2017-07-21T02:55:53.011Z,1006.82
2017-07-21T02:57:03.302Z,1006.84
2017-07-21T02:58:13.576Z,1006.88
2017-07-21T02:59:23.563Z,1006.85
2017-07-21T03:00:33.159Z,1006.87
2017-07-21T03:01:43.144Z,1006.91
2017-07-21T03:02:53.106Z,1006.86
2017-07-21T03:04:03.064Z,1006.93
2017-07-21T03:05:13.034Z,1006.85
2017-07-21T03:06:23.557Z,1006.88
2017-07-21T03:07:33.511Z,1006.92
2017-07-21T03:08:43.790Z,1006.91
2017-07-21T03:09:54.064Z,1006.92
2017-07-21T03:11:04.338Z,1006.95
2017-07-21T03:12:14.548Z,1006.96
2017-07-21T03:13:24.510Z,1006.94
2017-07-21T03:14:34.477Z,1006.95
2017-07-21T03:15:44.735Z,1006.98
2017-07-21T03:16:55.044Z,1007.06
2017-07-21T03:18:04.961Z,1007.01
2017-07-21T03:19:15.248Z,1007.04
2017-07-21T03:20:25.540Z,1007.07
2017-07-21T03:21:35.820Z,1007.02
2017-07-21T03:22:46.346Z,1007.05
2017-07-21T03:23:56.558Z,1007.04
2017-07-21T03:25:06.506Z,1007.04
2017-07-21T03:26:16.476Z,1007.03
2017-07-21T03:27:26.426Z,1007.05
2017-07-21T03:28:36.394Z,1007
2017-07-21T03:29:46.907Z,1007.08
2017-07-21T03:30:57.436Z,1007.1
2017-07-21T03:32:07.098Z,1007.09
2017-07-21T03:33:17.076Z,1007.1
2017-07-21T03:34:27.351Z,1007.09
2017-07-21T03:35:37.880Z,1007
2017-07-21T03:36:48.175Z,1007.01
2017-07-21T03:37:58.461Z,1007.07
2017-07-21T03:39:08.738Z,1007.01
2017-07-21T03:40:19.014Z,1007.07
2017-07-21T03:41:29.546Z,1007.11
2017-07-21T03:42:39.823Z,1007.15
2017-07-21T03:43:49.812Z,1007.17
2017-07-21T03:45:00.084Z,1007.19
2017-07-21T03:46:10.368Z,1007.14
2017-07-21T03:47:20.594Z,1007.2
2017-07-21T03:48:30.578Z,1007.23
2017-07-21T03:49:40.841Z,1007.21
2017-07-21T03:50:50.807Z,1007.23
2017-07-21T03:52:00.768Z,1007.15
2017-07-21T03:53:10.973Z,1007.19
2017-07-21T03:54:20.944Z,1007.21
2017-07-21T03:55:30.913Z,1007.22
2017-07-21T03:56:40.889Z,1007.22
2017-07-21T03:57:51.177Z,1007.28
2017-07-21T03:59:01.395Z,1007.24
2017-07-21T04:00:11.677Z,1007.26
2017-07-21T04:01:21.645Z,1007.28
2017-07-21T04:02:31.606Z,1007.32
2017-07-21T04:03:41.896Z,1007.29
2017-07-21T04:04:52.430Z,1007.26
2017-07-21T04:06:02.100Z,1007.27
2017-07-21T04:07:12.080Z,1007.31
2017-07-21T04:08:22.046Z,1007.27
2017-07-21T04:09:32.551Z,1007.28
2017-07-21T04:10:42.769Z,1007.33
2017-07-21T04:11:53.066Z,1007.34
2017-07-21T04:13:03.333Z,1007.35
2017-07-21T04:14:13.615Z,1007.36
2017-07-21T04:15:23.579Z,1007.36
2017-07-21T04:16:33.790Z,1007.31
2017-07-21T04:17:43.778Z,1007.31
2017-07-21T04:18:54.053Z,1007.32
2017-07-21T04:20:04.349Z,1007.3
2017-07-21T04:21:14.638Z,1007.35
2017-07-21T04:22:25.392Z,1007.3
2017-07-21T04:23:35.366Z,1007.33
2017-07-21T04:24:45.647Z,1007.37
2017-07-21T04:25:55.617Z,1007.39
2017-07-21T04:27:05.896Z,1007.44
2017-07-21T04:28:16.429Z,1007.42
2017-07-21T04:29:26.420Z,1007.42
2017-07-21T04:30:36.398Z,1007.43
2017-07-21T04:31:46.722Z,1007.46
2017-07-21T04:32:56.997Z,1007.44
2017-07-21T04:34:07.223Z,1007.4
2017-07-21T04:35:17.504Z,1007.44
2017-07-21T04:36:27.809Z,1007.49
2017-07-21T04:37:38.085Z,1007.47
2017-07-21T04:38:48.066Z,1007.49
2017-07-21T04:39:58.601Z,1007.5
2017-07-21T04:41:08.875Z,1007.55
2017-07-21T04:42:18.854Z,1007.48
2017-07-21T04:43:28.507Z,1007.5
2017-07-21T04:44:38.788Z,1007.55
2017-07-21T04:45:49.309Z,1007.5
2017-07-21T04:46:59.590Z,1007.46
2017-07-21T04:48:09.863Z,1007.51
2017-07-21T04:49:19.515Z,1007.49
2017-07-21T04:50:29.471Z,1007.54
2017-07-21T04:51:39.998Z,1007.57
2017-07-21T04:52:50.290Z,1007.55
2017-07-21T04:53:59.938Z,1007.58
2017-07-21T04:55:09.916Z,1007.6
2017-07-21T04:56:20.188Z,1007.63
2017-07-21T04:57:30.718Z,1007.57
2017-07-21T04:58:40.682Z,1007.59
2017-07-21T04:59:50.953Z,1007.62
2017-07-21T05:01:00.940Z,1007.65
2017-07-21T05:02:11.227Z,1007.61
2017-07-21T05:03:21.762Z,1007.65
2017-07-21T05:04:31.733Z,1007.65
2017-07-21T05:05:41.700Z,1007.65
2017-07-21T05:06:51.967Z,1007.66
2017-07-21T05:08:02.252Z,1007.67
2017-07-21T05:09:12.825Z,1007.69
2017-07-21T05:10:23.097Z,1007.78
2017-07-21T05:11:33.365Z,1007.82
2017-07-21T05:12:43.683Z,1007.74
2017-07-21T05:13:53.948Z,1007.73
2017-07-21T05:15:04.495Z,1007.75
2017-07-21T05:16:14.779Z,1007.73
2017-07-21T05:17:25.071Z,1007.78
2017-07-21T05:18:35.355Z,1007.71
2017-07-21T05:19:45.314Z,1007.75
2017-07-21T05:20:55.827Z,1007.78
2017-07-21T05:22:05.802Z,1007.7
2017-07-21T05:23:15.778Z,1007.69
2017-07-21T05:24:25.748Z,1007.77
2017-07-21T05:25:35.714Z,1007.76
2017-07-21T05:26:46.248Z,1007.76
2017-07-21T05:27:56.528Z,1007.77
2017-07-21T05:29:06.810Z,1007.72
2017-07-21T05:30:17.101Z,1007.76
2017-07-21T05:31:26.783Z,1007.79
2017-07-21T05:32:37.313Z,1007.82
2017-07-21T05:33:47.611Z,1007.85
2017-07-21T05:34:57.912Z,1007.9
2017-07-21T05:36:08.231Z,1007.93
2017-07-21T05:37:18.207Z,1007.92
2017-07-21T05:38:28.727Z,1007.96
2017-07-21T05:39:39.007Z,1007.97
2017-07-21T05:40:49.293Z,1007.99
2017-07-21T05:41:59.554Z,1007.94
2017-07-21T05:43:09.822Z,1007.99
2017-07-21T05:44:20.036Z,1008.03
2017-07-21T05:45:30.308Z,1007.98
2017-07-21T05:46:40.594Z,1007.98
2017-07-21T05:47:50.872Z,1007.97
2017-07-21T05:49:01.149Z,1007.99
2017-07-21T05:50:11.670Z,1008.03
2017-07-21T05:51:21.964Z,1008.05
2017-07-21T05:52:31.921Z,1008.02
2017-07-21T05:53:42.231Z,1008.08
2017-07-21T05:54:52.199Z,1008.08
2017-07-21T05:56:02.708Z,1008.13
2017-07-21T05:57:12.988Z,1008.14
2017-07-21T05:58:22.954Z,1008.1
2017-07-21T05:59:33.252Z,1008.15
2017-07-21T06:00:43.237Z,1008.09
2017-07-21T06:01:53.771Z,1008.12
2017-07-21T06:03:04.053Z,1008.16
2017-07-21T06:04:14.325Z,1008.17
2017-07-21T06:05:24.280Z,1008.24
2017-07-21T06:06:34.246Z,1008.22
2017-07-21T06:07:44.773Z,1008.25
2017-07-21T06:08:55.054Z,1008.23
2017-07-21T06:10:05.319Z,1008.3
2017-07-21T06:11:15.633Z,1008.37
2017-07-21T06:12:25.599Z,1008.36
2017-07-21T06:13:36.126Z,1008.31
2017-07-21T06:14:46.395Z,1008.36
2017-07-21T06:15:56.669Z,1008.37
2017-07-21T06:17:06.955Z,1008.39
2017-07-21T06:18:17.235Z,1008.4
2017-07-21T06:19:27.774Z,1008.4
2017-07-21T06:20:38.078Z,1008.52
2017-07-21T06:21:48.048Z,1008.5
2017-07-21T06:22:58.017Z,1008.43
2017-07-21T06:24:08.295Z,1008.45
2017-07-21T06:25:18.838Z,1008.53
2017-07-21T06:26:29.146Z,1008.45
2017-07-21T06:27:39.102Z,1008.39
2017-07-21T06:28:48.462Z,1008.44
2017-07-21T06:29:58.444Z,1008.4
2017-07-21T06:31:08.969Z,1008.41
2017-07-21T06:32:19.270Z,1008.39
2017-07-21T06:33:29.554Z,1008.43
2017-07-21T06:34:39.856Z,1008.42
2017-07-21T06:35:50.144Z,1008.46
2017-07-21T06:37:00.676Z,1008.43
2017-07-21T06:38:10.338Z,1008.48
2017-07-21T06:39:20.634Z,1008.45
2017-07-21T06:40:30.916Z,1008.52
2017-07-21T06:41:41.194Z,1008.47
2017-07-21T06:42:51.401Z,1008.49
2017-07-21T06:44:01.381Z,1008.49
2017-07-21T06:45:11.355Z,1008.47
2017-07-21T06:46:21.647Z,1008.54
2017-07-21T06:47:31.623Z,1008.54
2017-07-21T06:48:42.161Z,1008.56
2017-07-21T06:49:52.442Z,1008.52
2017-07-21T06:51:01.801Z,1008.54
2017-07-21T06:52:12.094Z,1008.52
2017-07-21T06:53:22.409Z,1008.56
2017-07-21T06:54:32.637Z,1008.6
2017-07-21T06:55:42.654Z,1008.6
2017-07-21T06:56:52.953Z,1008.59
2017-07-21T06:58:03.260Z,1008.55
2017-07-21T06:59:13.555Z,1008.6
2017-07-21T07:00:24.150Z,1008.63
2017-07-21T07:01:33.831Z,1008.64
2017-07-21T07:02:44.115Z,1008.62
2017-07-21T07:03:54.406Z,1008.62
2017-07-21T07:05:04.072Z,1008.64
2017-07-21T07:06:14.609Z,1008.61
2017-07-21T07:07:24.917Z,1008.68
2017-07-21T07:08:35.184Z,1008.63
2017-07-21T07:09:45.452Z,1008.64
2017-07-21T07:10:55.739Z,1008.63
2017-07-21T07:12:05.982Z,1008.68
2017-07-21T07:13:16.281Z,1008.73
2017-07-21T07:14:26.580Z,1008.72
2017-07-21T07:15:36.848Z,1008.75
2017-07-21T07:16:47.132Z,1008.77
2017-07-21T07:17:57.666Z,1008.74
2017-07-21T07:19:07.661Z,1008.78
2017-07-21T07:20:17.653Z,1008.75
2017-07-21T07:21:27.651Z,1008.77
2017-07-21T07:22:37.934Z,1008.78
2017-07-21T07:23:48.495Z,1008.77
2017-07-21T07:24:58.788Z,1008.8
2017-07-21T07:26:09.077Z,1008.8
2017-07-21T07:27:19.404Z,1008.81
2017-07-21T07:28:29.672Z,1008.85
2017-07-21T07:29:40.192Z,1008.85
2017-07-21T07:30:50.486Z,1008.83
2017-07-21T07:32:00.813Z,1008.85
2017-07-21T07:33:10.805Z,1008.88
2017-07-21T07:34:21.088Z,1008.91
2017-07-21T07:35:31.312Z,1008.86
2017-07-21T07:36:40.976Z,1008.84
2017-07-21T07:37:51.270Z,1008.85
2017-07-21T07:39:00.939Z,1008.9
2017-07-21T07:40:11.223Z,1008.95
2017-07-21T07:41:21.440Z,1008.85
2017-07-21T07:42:31.746Z,1008.9
2017-07-21T07:43:42.053Z,1008.98
2017-07-21T07:44:52.349Z,1008.92
2017-07-21T07:46:02.645Z,1008.99
2017-07-21T07:47:12.882Z,1008.97
2017-07-21T07:48:23.197Z,1009.03
2017-07-21T07:49:33.479Z,1009.06
2017-07-21T07:50:42.837Z,1009.01
2017-07-21T07:51:52.505Z,1009
2017-07-21T07:53:03.033Z,1009.05
2017-07-21T07:54:13.024Z,1009.05
2017-07-21T07:55:23.324Z,1009
2017-07-21T07:56:33.298Z,1009.08
2017-07-21T07:57:43.288Z,1009.19
2017-07-21T07:58:53.496Z,1009.08
2017-07-21T08:00:03.790Z,1009.06
2017-07-21T08:01:13.771Z,1009.08
2017-07-21T08:02:23.798Z,1009.11
2017-07-21T08:03:33.466Z,1009.01
2017-07-21T08:04:44.027Z,1009.13
2017-07-21T08:05:54.311Z,1009.08
2017-07-21T08:07:04.598Z,1009.21
2017-07-21T08:08:14.867Z,1009.17
2017-07-21T08:09:25.163Z,1009.2
2017-07-21T08:10:35.676Z,1009.19
2017-07-21T08:11:45.950Z,1009.21
2017-07-21T08:12:56.233Z,1009.31
2017-07-21T08:14:06.515Z,1009.32
2017-07-21T08:15:16.825Z,1009.38
2017-07-21T08:16:27.055Z,1009.36
2017-07-21T08:17:37.376Z,1009.36
2017-07-21T08:18:47.353Z,1009.36
2017-07-21T08:19:57.682Z,1009.34
2017-07-21T08:21:07.377Z,1009.37
2017-07-21T08:22:17.335Z,1009.4
2017-07-21T08:23:27.315Z,1009.38
2017-07-21T08:24:37.589Z,1009.44
2017-07-21T08:25:47.569Z,1009.36
2017-07-21T08:26:57.240Z,1009.45
2017-07-21T08:28:07.764Z,1009.47
2017-07-21T08:29:18.048Z,1009.5
2017-07-21T08:30:28.336Z,1009.46
2017-07-21T08:31:38.653Z,1009.44
2017-07-21T08:32:48.958Z,1009.5
2017-07-21T08:33:59.492Z,1009.56
2017-07-21T08:35:09.782Z,1009.52
2017-07-21T08:36:20.094Z,1009.57
2017-07-21T08:37:30.089Z,1009.56
2017-07-21T08:38:40.432Z,1009.54
2017-07-21T08:39:50.980Z,1009.57
2017-07-21T08:41:00.952Z,1009.49
2017-07-21T08:42:11.241Z,1009.51
2017-07-21T08:43:21.565Z,1009.52
2017-07-21T08:44:31.878Z,1009.54
2017-07-21T08:45:42.417Z,1009.59
2017-07-21T08:46:52.707Z,1009.61
2017-07-21T08:48:03.063Z,1009.6
2017-07-21T08:49:13.377Z,1009.57
2017-07-21T08:50:23.350Z,1009.67
2017-07-21T08:51:33.902Z,1009.7
2017-07-21T08:52:43.868Z,1009.67
2017-07-21T08:53:54.160Z,1009.7
2017-07-21T08:55:04.163Z,1009.68
2017-07-21T08:56:14.453Z,1009.65
2017-07-21T08:57:24.694Z,1009.73
2017-07-21T08:58:34.678Z,1009.69
2017-07-21T08:59:44.975Z,1009.8
2017-07-21T09:00:54.978Z,1009.74
2017-07-21T09:02:05.335Z,1009.74
2017-07-21T09:03:15.568Z,1009.77
2017-07-21T09:04:26.100Z,1009.74
2017-07-21T09:05:36.087Z,1009.74
2017-07-21T09:06:45.772Z,1009.85
2017-07-21T09:07:55.758Z,1009.83
2017-07-21T09:09:06.313Z,1009.79
2017-07-21T09:10:16.404Z,1009.78
2017-07-21T09:11:26.718Z,1009.78
2017-07-21T09:12:36.380Z,1009.79
2017-07-21T09:13:46.055Z,1009.83
2017-07-21T09:14:56.661Z,1009.78
2017-07-21T09:16:06.649Z,1009.8
2017-07-21T09:17:16.639Z,1009.85
2017-07-21T09:18:26.319Z,1009.83
2017-07-21T09:19:36.625Z,1009.91
2017-07-21T09:20:47.155Z,1009.97
2017-07-21T09:21:57.441Z,1009.9
2017-07-21T09:23:07.734Z,1009.86
2017-07-21T09:24:17.721Z,1009.86
2017-07-21T09:25:27.697Z,1009.91
2017-07-21T09:26:37.920Z,1009.9
2017-07-21T09:27:47.917Z,1009.92
2017-07-21T09:28:58.256Z,1009.91
2017-07-21T09:30:08.542Z,1009.95
2017-07-21T09:31:18.523Z,1009.86
2017-07-21T09:32:28.781Z,1009.93
2017-07-21T09:33:38.764Z,1009.92
2017-07-21T09:34:49.054Z,1009.93
2017-07-21T09:35:59.353Z,1009.88
2017-07-21T09:37:09.657Z,1009.79
2017-07-21T09:38:20.184Z,1009.81
2017-07-21T09:39:29.866Z,1009.84
2017-07-21T09:40:40.154Z,1009.86
2017-07-21T09:41:50.445Z,1009.89
2017-07-21T09:43:00.757Z,1009.9
2017-07-21T09:44:11.288Z,1009.81
2017-07-21T09:45:21.593Z,1009.85
2017-07-21T09:46:31.573Z,1009.98
2017-07-21T09:47:41.874Z,1010.02
2017-07-21T09:48:52.176Z,1010.02
2017-07-21T09:50:02.716Z,1009.96
2017-07-21T09:51:13.017Z,1009.92
2017-07-21T09:52:23.337Z,1009.96
2017-07-21T09:53:33.640Z,1009.94
2017-07-21T09:54:43.936Z,1009.96
2017-07-21T09:55:54.182Z,1009.99
2017-07-21T09:57:04.469Z,1009.97
2017-07-21T09:58:14.775Z,1009.96
2017-07-21T09:59:24.745Z,1009.98
2017-07-21T10:00:34.722Z,1009.94
2017-07-21T10:01:45.272Z,1009.95
2017-07-21T10:02:55.586Z,1009.95
2017-07-21T10:04:05.900Z,1009.98
2017-07-21T10:05:16.195Z,1010
2017-07-21T10:06:26.197Z,1009.98
2017-07-21T10:07:36.446Z,1009.93
2017-07-21T10:08:46.424Z,1009.93
2017-07-21T10:09:56.718Z,1009.88
2017-07-21T10:11:06.404Z,1009.93
2017-07-21T10:12:16.700Z,1009.89
2017-07-21T10:13:27.261Z,1009.91
2017-07-21T10:14:37.805Z,1009.86
2017-07-21T10:15:47.805Z,1009.95
2017-07-21T10:16:58.109Z,1009.95
2017-07-21T10:18:08.418Z,1009.92
2017-07-21T10:19:18.661Z,1009.9
2017-07-21T10:20:28.956Z,1009.87
2017-07-21T10:21:38.949Z,1009.9
2017-07-21T10:22:49.256Z,1009.87
2017-07-21T10:23:59.549Z,1009.86
2017-07-21T10:25:10.091Z,1009.92
2017-07-21T10:26:20.082Z,1009.82
2017-07-21T10:27:30.370Z,1009.8
2017-07-21T10:28:40.674Z,1010.01
2017-07-21T10:29:50.973Z,1009.91
2017-07-21T10:31:01.553Z,1009.9
2017-07-21T10:32:11.571Z,1010.06
2017-07-21T10:33:21.870Z,1010.02
2017-07-21T10:34:32.170Z,1010.04
2017-07-21T10:35:42.458Z,1010.03
2017-07-21T10:36:52.681Z,1009.95
2017-07-21T10:38:02.966Z,1009.89
2017-07-21T10:39:13.261Z,1009.91
2017-07-21T10:40:23.572Z,1009.93
2017-07-21T10:41:33.897Z,1009.91
2017-07-21T10:42:44.481Z,1009.92
2017-07-21T10:43:54.450Z,1009.97
2017-07-21T10:45:04.763Z,1009.95
2017-07-21T10:46:15.076Z,1009.94
2017-07-21T10:47:25.045Z,1009.93
2017-07-21T10:48:35.296Z,1009.91
2017-07-21T10:49:44.984Z,1009.95
2017-07-21T10:50:54.663Z,1009.9
2017-07-21T10:52:04.671Z,1010.05
2017-07-21T10:53:14.972Z,1010
2017-07-21T10:54:25.533Z,1009.97
2017-07-21T10:55:35.842Z,1010.02
2017-07-21T10:56:46.149Z,1009.98
2017-07-21T10:57:56.442Z,1010.1
2017-07-21T10:59:06.430Z,1010.02
2017-07-21T11:00:16.979Z,1010.01
2017-07-21T11:01:27.287Z,1010.09
2017-07-21T11:02:37.285Z,1010.09
2017-07-21T11:03:47.260Z,1010.09
2017-07-21T11:04:57.253Z,1010.06
2017-07-21T11:06:07.205Z,1009.99
2017-07-21T11:07:17.198Z,1010.13
2017-07-21T11:08:27.185Z,1010.01
2017-07-21T11:09:37.484Z,1010.06
2017-07-21T11:10:47.174Z,1009.97
2017-07-21T11:11:57.733Z,1010
2017-07-21T11:13:08.226Z,1009.98
2017-07-21T11:14:17.940Z,1010
2017-07-21T11:15:28.245Z,1010
2017-07-21T11:16:38.250Z,1009.93
2017-07-21T11:17:48.512Z,1009.98
2017-07-21T11:18:58.509Z,1009.99
2017-07-21T11:20:08.795Z,1009.94
2017-07-21T11:21:19.087Z,1010
2017-07-21T11:22:29.386Z,1009.96
2017-07-21T11:23:39.916Z,1009.9
2017-07-21T11:24:49.909Z,1009.98
2017-07-21T11:26:00.199Z,1009.96
2017-07-21T11:27:10.496Z,1009.93
2017-07-21T11:28:20.482Z,1009.9
2017-07-21T11:29:30.710Z,1009.94
2017-07-21T11:30:41.019Z,1009.96
2017-07-21T11:31:51.318Z,1009.93
2017-07-21T11:33:01.303Z,1009.87
2017-07-21T11:34:11.298Z,1009.94
2017-07-21T11:35:21.549Z,1009.87
2017-07-21T11:36:31.848Z,1009.94
2017-07-21T11:37:41.506Z,1009.91
2017-07-21T11:38:51.186Z,1009.98
2017-07-21T11:40:01.173Z,1009.98
2017-07-21T11:41:11.425Z,1009.94
2017-07-21T11:42:21.393Z,1009.92
2017-07-21T11:43:31.687Z,1009.94
2017-07-21T11:44:41.988Z,1009.95
2017-07-21T11:45:52.301Z,1009.93
2017-07-21T11:47:02.518Z,1009.91
2017-07-21T11:48:12.835Z,1009.9
2017-07-21T11:49:22.500Z,1009.96
2017-07-21T11:50:32.496Z,1009.95
2017-07-21T11:51:42.781Z,1009.89
2017-07-21T11:52:52.385Z,1009.97
2017-07-21T11:54:02.371Z,1009.97
2017-07-21T11:55:12.357Z,1009.94
2017-07-21T11:56:22.678Z,1009.91
2017-07-21T11:57:32.981Z,1009.84
2017-07-21T11:58:43.536Z,1009.91
2017-07-21T11:59:53.869Z,1009.86
2017-07-21T12:01:04.153Z,1009.87
2017-07-21T12:02:14.139Z,1009.85
2017-07-21T12:03:24.125Z,1009.8
2017-07-21T12:04:34.664Z,1009.84
2017-07-21T12:05:44.965Z,1009.79
2017-07-21T12:06:55.252Z,1009.77
2017-07-21T12:08:05.589Z,1009.76
2017-07-21T12:09:15.599Z,1009.74
2017-07-21T12:10:26.149Z,1009.79
2017-07-21T12:11:36.444Z,1009.76
2017-07-21T12:12:46.434Z,1009.83
2017-07-21T12:13:56.437Z,1009.81
2017-07-21T12:15:06.428Z,1009.8
2017-07-21T12:16:16.668Z,1009.78
2017-07-21T12:17:26.968Z,1009.85
2017-07-21T12:18:37.271Z,1009.79
2017-07-21T12:19:47.590Z,1009.85
2017-07-21T12:20:57.592Z,1009.79
2017-07-21T12:22:08.202Z,1009.78
2017-07-21T12:23:18.508Z,1009.72
2017-07-21T12:24:28.210Z,1009.74
2017-07-21T12:25:38.508Z,1009.76
2017-07-21T12:26:48.488Z,1009.68
2017-07-21T12:27:59.035Z,1009.69
2017-07-21T12:29:09.352Z,1009.67
2017-07-21T12:30:19.653Z,1009.73
2017-07-21T12:31:29.960Z,1009.66
2017-07-21T12:32:40.256Z,1009.61
2017-07-21T12:33:50.190Z,1009.67
2017-07-21T12:35:00.487Z,1009.64
2017-07-21T12:36:10.811Z,1009.62
2017-07-21T12:37:21.119Z,1009.6
2017-07-21T12:38:31.436Z,1009.58
2017-07-21T12:39:41.675Z,1009.61
2017-07-21T12:40:51.345Z,1009.6
2017-07-21T12:42:01.640Z,1009.63
2017-07-21T12:43:11.959Z,1009.63
2017-07-21T12:44:21.954Z,1009.59
2017-07-21T12:45:32.564Z,1009.68
2017-07-21T12:46:42.870Z,1009.61
2017-07-21T12:47:52.850Z,1009.6
2017-07-21T12:49:03.152Z,1009.61
2017-07-21T12:50:13.131Z,1009.5
2017-07-21T12:51:23.365Z,1009.43
2017-07-21T12:52:33.361Z,1009.48
2017-07-21T12:53:43.669Z,1009.59
2017-07-21T12:54:53.646Z,1009.55
2017-07-21T12:56:03.958Z,1009.54
2017-07-21T12:57:14.185Z,1009.54
2017-07-21T12:58:24.492Z,1009.51
2017-07-21T12:59:34.590Z,1009.57
2017-07-21T13:00:44.884Z,1009.6
2017-07-21T13:01:54.892Z,1009.52
2017-07-21T13:03:05.439Z,1009.54
2017-07-21T13:04:15.481Z,1009.52
2017-07-21T13:05:25.796Z,1009.53
2017-07-21T13:06:36.095Z,1009.55
2017-07-21T13:07:46.387Z,1009.5
2017-07-21T13:08:56.960Z,1009.41
2017-07-21T13:10:07.286Z,1009.43
2017-07-21T13:11:17.280Z,1009.37
2017-07-21T13:12:27.578Z,1009.38
2017-07-21T13:13:37.927Z,1009.44
2017-07-21T13:14:48.501Z,1009.46
2017-07-21T13:15:58.501Z,1009.46
2017-07-21T13:17:08.805Z,1009.49
2017-07-21T13:18:19.096Z,1009.49
2017-07-21T13:19:29.387Z,1009.51
2017-07-21T13:20:39.621Z,1009.47
2017-07-21T13:21:49.630Z,1009.4
2017-07-21T13:22:59.640Z,1009.48
2017-07-21T13:24:09.935Z,1009.44
2017-07-21T13:25:20.230Z,1009.41
2017-07-21T13:26:30.768Z,1009.39
2017-07-21T13:27:41.083Z,1009.4
2017-07-21T13:28:51.057Z,1009.4
2017-07-21T13:30:01.365Z,1009.41
2017-07-21T13:31:11.636Z,1009.4
2017-07-21T13:32:21.969Z,1009.36
2017-07-21T13:33:31.984Z,1009.35
2017-07-21T13:34:42.274Z,1009.33
2017-07-21T13:35:52.585Z,1009.34
2017-07-21T13:37:02.589Z,1009.32
2017-07-21T13:38:13.215Z,1009.26
2017-07-21T13:39:23.209Z,1009.3
2017-07-21T13:40:33.531Z,1009.25
2017-07-21T13:41:43.510Z,1009.31
2017-07-21T13:42:53.497Z,1009.3
2017-07-21T13:44:04.029Z,1009.33
2017-07-21T13:45:13.997Z,1009.32
2017-07-21T13:46:24.311Z,1009.29
2017-07-21T13:47:34.316Z,1009.28
2017-07-21T13:48:44.635Z,1009.27
2017-07-21T13:49:54.889Z,1009.28
2017-07-21T13:51:04.896Z,1009.3
2017-07-21T13:52:14.879Z,1009.25
2017-07-21T13:53:25.203Z,1009.22
2017-07-21T13:54:35.508Z,1009.21
2017-07-21T13:55:46.048Z,1009.23
2017-07-21T13:56:56.338Z,1009.21
2017-07-21T13:58:06.634Z,1009.18
2017-07-21T13:59:16.933Z,1009.1
2017-07-21T14:00:27.348Z,1009.16
2017-07-21T14:01:37.947Z,1009.15
2017-07-21T14:02:48.274Z,1009.16
2017-07-21T14:03:58.583Z,1009.14
2017-07-21T14:05:08.890Z,1009.13
2017-07-21T14:06:19.212Z,1009.07
2017-07-21T14:07:29.821Z,1008.97
2017-07-21T14:08:39.516Z,1009.02
2017-07-21T14:09:49.819Z,1009.08
2017-07-21T14:10:59.828Z,1009.08
2017-07-21T14:12:10.132Z,1009.03
2017-07-21T14:13:20.717Z,1008.98